Time;durP1;ratioP1;P1;durP2;ratioP2;P2;SDS_P1;SDS_P2;PMS_P1;PMS_P2;Temp;Humidity;BMP_temperature;BMP_pressure;BME280_temperature;BME280_humidity;BME280_pressure;Samples;Min_cycle;Max_cycle;Signal;HPM_P1;HPM_P2
2023/10/17 00:02:22;;;;;;;10.63;3.17;;;6.80;99.90;;;;;;5046845;28;20048;-82
2023/10/17 00:04:49;;;;;;;6.78;3.30;;;6.80;99.90;;;;;;5045927;28;20037;-81
2023/10/17 00:07:15;;;;;;;5.68;3.20;;;6.80;99.90;;;;;;5042519;28;20038;-81
2023/10/17 00:09:42;;;;;;;6.97;3.15;;;6.70;99.90;;;;;;5032506;28;20042;-81
2023/10/17 00:17:22;;;;;;;8.95;3.88;;;6.60;99.90;;;;;;5066074;28;20167;-81
2023/10/17 00:19:49;;;;;;;7.47;3.90;;;6.50;99.90;;;;;;5050597;28;20063;-81
2023/10/17 00:22:18;;;;;;;7.13;4.53;;;6.50;99.90;;;;;;5066291;28;20048;-81
2023/10/17 00:24:49;;;;;;;7.03;3.22;;;6.60;99.90;;;;;;5040089;28;20069;-81
2023/10/17 00:27:15;;;;;;;7.35;3.17;;;6.50;99.90;;;;;;5041149;28;20071;-80
2023/10/17 00:29:42;;;;;;;5.90;3.28;;;6.40;99.90;;;;;;5039108;28;20050;-81
2023/10/17 00:32:09;;;;;;;8.38;3.88;;;6.30;99.90;;;;;;5035149;28;20064;-81
2023/10/17 00:34:36;;;;;;;7.45;3.70;;;6.40;99.90;;;;;;5041766;28;20102;-81
2023/10/17 00:39:38;;;;;;;10.32;3.70;;;6.20;99.90;;;;;;5059594;28;20046;-81
2023/10/17 00:44:39;;;;;;;7.38;3.35;;;6.40;99.90;;;;;;5047840;28;20069;-81
2023/10/17 00:47:18;;;;;;;6.63;3.20;;;6.10;99.90;;;;;;5043332;28;20044;-81
2023/10/17 00:49:45;;;;;;;6.82;3.22;;;6.10;99.90;;;;;;5063758;28;20037;-82
2023/10/17 00:52:20;;;;;;;8.15;3.08;;;6.20;99.90;;;;;;5049559;28;20041;-81
2023/10/17 00:54:48;;;;;;;6.88;3.40;;;6.10;99.90;;;;;;5043528;28;20089;-81
2023/10/17 00:57:17;;;;;;;8.10;3.35;;;6.50;99.90;;;;;;5042629;28;20061;-82
2023/10/17 00:59:50;;;;;;;7.25;3.20;;;6.10;99.90;;;;;;5049301;28;20049;-81
2023/10/17 01:02:22;;;;;;;9.90;3.78;;;6.10;99.90;;;;;;5014111;28;20123;-81
2023/10/17 01:04:56;;;;;;;7.15;3.35;;;6.00;99.90;;;;;;5045685;28;20034;-81
2023/10/17 01:07:34;;;;;;;5.22;3.10;;;6.00;99.90;;;;;;5032605;28;20038;-81
2023/10/17 01:10:10;;;;;;;6.90;3.45;;;6.00;99.90;;;;;;5049331;28;20273;-81
2023/10/17 01:12:50;;;;;;;5.90;3.17;;;6.00;99.90;;;;;;5045034;28;20041;-81
2023/10/17 01:15:27;;;;;;;7.78;3.38;;;6.00;99.90;;;;;;5034206;28;20124;-81
2023/10/17 01:18:06;;;;;;;7.22;3.63;;;6.00;99.90;;;;;;5036696;28;20054;-81
2023/10/17 01:20:35;;;;;;;10.25;3.80;;;6.00;99.90;;;;;;5044517;28;20038;-81
2023/10/17 01:23:01;;;;;;;6.28;3.53;;;6.00;99.90;;;;;;5047580;28;20030;-81
2023/10/17 01:25:35;;;;;;;6.53;3.10;;;6.00;99.90;;;;;;5056969;28;20434;-82
2023/10/17 01:28:03;;;;;;;7.75;3.53;;;6.00;99.90;;;;;;5049238;28;20037;-81
2023/10/17 01:30:30;;;;;;;9.80;3.40;;;6.10;99.90;;;;;;5043367;28;20120;-81
2023/10/17 01:32:57;;;;;;;6.97;3.85;;;6.10;99.90;;;;;;5065684;28;20562;-81
2023/10/17 01:35:24;;;;;;;7.40;3.60;;;6.40;99.90;;;;;;5053717;28;20129;-81
2023/10/17 01:37:55;;;;;;;7.97;3.38;;;6.20;99.90;;;;;;5035990;28;20461;-81
2023/10/17 01:40:27;;;;;;;8.38;3.20;;;6.70;99.90;;;;;;5032336;28;20048;-81
2023/10/17 01:42:58;;;;;;;9.93;3.85;;;6.30;99.90;;;;;;5060297;28;20046;-81
2023/10/17 01:45:26;;;;;;;8.52;4.13;;;6.70;99.90;;;;;;5059561;28;20065;-81
2023/10/17 01:47:53;;;;;;;7.75;3.95;;;6.40;99.90;;;;;;5049328;28;20096;-81
2023/10/17 01:50:23;;;;;;;7.47;3.90;;;6.40;99.90;;;;;;5030958;28;20092;-81
2023/10/17 01:52:53;;;;;;;10.57;4.30;;;6.40;99.90;;;;;;5039982;28;20054;-81
2023/10/17 01:55:27;;;;;;;9.95;3.60;;;6.40;99.90;;;;;;5038975;28;20107;-81
2023/10/17 01:57:57;;;;;;;8.45;3.28;;;6.50;99.90;;;;;;5041578;28;20057;-81
2023/10/17 02:00:25;;;;;;;7.07;3.60;;;6.50;99.90;;;;;;5041148;28;20049;-81
2023/10/17 02:02:54;;;;;;;5.38;3.22;;;6.60;99.90;;;;;;5032904;28;20176;-81
2023/10/17 02:05:22;;;;;;;6.88;3.85;;;6.60;99.90;;;;;;5043532;28;20094;-81
2023/10/17 02:07:49;;;;;;;6.32;3.72;;;6.60;99.90;;;;;;5049308;28;20038;-81
2023/10/17 02:10:21;;;;;;;6.45;3.80;;;6.90;99.90;;;;;;5041414;28;20051;-81
2023/10/17 02:12:48;;;;;;;6.63;3.40;;;7.00;99.90;;;;;;5053390;28;20179;-81
2023/10/17 02:15:25;;;;;;;8.10;3.83;;;6.90;99.90;;;;;;5059453;28;20045;-81
2023/10/17 02:17:52;;;;;;;7.13;3.53;;;6.60;99.90;;;;;;5055532;28;20163;-81
2023/10/17 02:20:30;;;;;;;6.20;3.47;;;6.60;99.90;;;;;;5072704;28;20045;-81
2023/10/17 02:22:58;;;;;;;5.53;3.60;;;6.60;99.90;;;;;;5075656;28;20398;-81
2023/10/17 02:25:32;;;;;;;6.78;3.50;;;6.60;99.90;;;;;;5059769;28;20048;-82
2023/10/17 02:27:59;;;;;;;6.25;3.55;;;6.60;99.90;;;;;;5071896;28;20052;-82
2023/10/17 02:30:25;;;;;;;7.38;3.60;;;6.60;99.90;;;;;;5055570;28;20037;-81
2023/10/17 02:32:56;;;;;;;6.68;3.45;;;6.60;99.90;;;;;;5061391;28;20049;-81
2023/10/17 02:35:42;;;;;;;8.27;3.75;;;6.60;99.90;;;;;;5075433;28;20395;-81
2023/10/17 02:38:08;;;;;;;8.75;3.63;;;6.50;99.90;;;;;;5077214;28;20047;-81
2023/10/17 02:40:40;;;;;;;7.85;3.50;;;6.50;99.90;;;;;;5055263;28;20119;-81
2023/10/17 02:43:12;;;;;;;7.57;3.58;;;6.60;99.90;;;;;;5052853;28;20114;-81
2023/10/17 02:45:41;;;;;;;5.40;3.30;;;6.50;99.90;;;;;;5045376;28;20450;-81
2023/10/17 02:48:26;;;;;;;5.68;3.50;;;6.50;99.90;;;;;;5055218;28;20052;-81
2023/10/17 02:50:59;;;;;;;9.43;3.85;;;6.50;99.90;;;;;;5055507;28;20127;-81
2023/10/17 02:53:26;;;;;;;7.45;3.70;;;6.60;99.90;;;;;;5071579;28;20170;-81
2023/10/17 02:55:53;;;;;;;9.30;3.92;;;6.90;99.90;;;;;;5071722;28;20049;-81
2023/10/17 02:58:20;;;;;;;5.43;3.17;;;7.10;99.90;;;;;;5054444;28;20044;-81
2023/10/17 03:00:50;;;;;;;6.40;3.40;;;7.30;99.90;;;;;;5068832;28;20119;-81
2023/10/17 03:03:19;;;;;;;13.65;3.90;;;6.70;99.90;;;;;;5067907;28;20045;-80
2023/10/17 03:05:50;;;;;;;6.85;4.15;;;6.70;99.90;;;;;;5043989;28;20033;-81
2023/10/17 03:08:17;;;;;;;7.95;3.90;;;6.80;99.90;;;;;;5071611;28;20045;-80
2023/10/17 03:10:44;;;;;;;7.90;4.05;;;6.70;99.90;;;;;;5055135;28;20076;-81
2023/10/17 03:13:59;;;;;;;10.00;4.05;;;6.70;99.90;;;;;;5039468;28;20045;-81
2023/10/17 03:16:14;;;;;;;12.13;3.90;;;6.90;99.90;;;;;;5053325;28;20503;-81
2023/10/17 03:18:40;;;;;;;7.95;4.03;;;6.80;99.90;;;;;;5054044;28;20555;-81
2023/10/17 03:21:08;;;;;;;8.90;4.45;;;6.90;99.90;;;;;;5047582;28;20132;-81
2023/10/17 03:23:35;;;;;;;8.73;4.43;;;6.90;99.90;;;;;;5019881;28;20052;-81
2023/10/17 03:26:01;;;;;;;7.35;4.10;;;6.90;99.90;;;;;;5034376;28;20491;-81
2023/10/17 03:28:28;;;;;;;7.32;4.07;;;6.90;99.90;;;;;;5034640;28;20491;-81
2023/10/17 03:30:55;;;;;;;8.75;4.22;;;7.00;99.90;;;;;;5050748;28;20041;-81
2023/10/17 03:33:27;;;;;;;8.50;4.25;;;7.10;99.90;;;;;;5054055;28;20435;-81
2023/10/17 03:38:30;;;;;;;7.90;4.18;;;7.00;99.90;;;;;;5070561;28;20040;-81
2023/10/17 03:41:07;;;;;;;7.07;3.90;;;7.10;99.90;;;;;;5043055;28;20048;-81
2023/10/17 03:43:39;;;;;;;12.70;4.25;;;7.40;99.90;;;;;;5052978;28;20075;-81
2023/10/17 03:46:06;;;;;;;7.15;4.15;;;7.00;99.90;;;;;;5054198;28;20037;-81
2023/10/17 03:48:36;;;;;;;7.10;3.88;;;7.10;99.90;;;;;;5053881;28;20044;-81
2023/10/17 03:51:15;;;;;;;7.65;3.97;;;7.60;99.90;;;;;;5053800;28;20453;-81
2023/10/17 03:53:46;;;;;;;7.80;3.90;;;7.60;99.90;;;;;;5054188;28;20047;-81
2023/10/17 03:56:25;;;;;;;9.85;4.05;;;7.10;99.90;;;;;;5048924;28;20128;-81
2023/10/17 04:01:58;;;;;;;9.38;4.18;;;7.40;99.90;;;;;;4998366;28;20409;-81
2023/10/17 04:04:33;;;;;;;6.55;3.78;;;7.20;99.90;;;;;;4971059;29;20039;-81
2023/10/17 04:07:06;;;;;;;7.63;3.90;;;7.20;99.90;;;;;;5002614;28;20494;-81
2023/10/17 04:09:46;;;;;;;6.70;3.50;;;7.20;99.90;;;;;;4983822;28;20094;-81
2023/10/17 04:12:21;;;;;;;6.90;3.63;;;7.20;99.90;;;;;;4974284;28;20043;-81
2023/10/17 04:14:53;;;;;;;11.15;4.03;;;7.80;99.90;;;;;;4986333;28;20051;-81
2023/10/17 04:17:23;;;;;;;7.70;3.72;;;7.20;99.90;;;;;;4971951;28;20082;-81
2023/10/17 04:19:58;;;;;;;6.97;3.70;;;7.30;99.90;;;;;;5000291;28;20051;-81
2023/10/17 04:22:32;;;;;;;7.75;3.80;;;7.30;99.90;;;;;;4974321;28;20035;-81
2023/10/17 04:25:01;;;;;;;5.38;3.15;;;7.30;99.90;;;;;;4986786;28;20054;-81
2023/10/17 04:27:34;;;;;;;7.30;3.38;;;7.30;99.90;;;;;;4973779;28;20129;-81
2023/10/17 04:30:07;;;;;;;4.95;3.28;;;7.30;99.90;;;;;;4971169;28;20058;-81
2023/10/17 04:32:38;;;;;;;6.70;3.35;;;7.40;99.90;;;;;;5020035;28;20103;-81
2023/10/17 04:35:07;;;;;;;10.88;4.15;;;7.40;99.90;;;;;;5050134;28;20036;-81
2023/10/17 04:37:37;;;;;;;7.72;3.40;;;7.40;99.90;;;;;;5029456;28;20038;-81
2023/10/17 04:45:23;;;;;;;5.95;3.35;;;7.50;99.90;;;;;;5059169;28;20042;-81
2023/10/17 04:48:11;;;;;;;9.70;3.83;;;7.50;99.90;;;;;;5032586;28;20454;-81
2023/10/17 04:50:45;;;;;;;11.27;3.80;;;7.50;99.90;;;;;;5066208;28;20045;-81
2023/10/17 04:53:19;;;;;;;8.50;3.75;;;7.90;99.90;;;;;;5068847;28;20037;-81
2023/10/17 05:01:46;;;;;;;5.53;3.60;;;7.60;99.90;;;;;;4990608;28;20057;-81
2023/10/17 06:18:26;;;;;;;7.32;4.40;;;7.80;99.90;;;;;;5061767;28;20049;-80
2023/10/17 06:34:21;;;;;;;8.55;4.50;;;7.90;99.90;;;;;;5046090;28;20124;-80
2023/10/17 06:36:59;;;;;;;9.63;5.00;;;7.90;99.90;;;;;;5038098;28;20068;-80
2023/10/17 06:39:36;;;;;;;13.50;4.78;;;7.90;99.90;;;;;;5045699;28;20044;-80
2023/10/17 06:42:28;;;;;;;9.35;5.63;;;8.00;99.90;;;;;;5039688;28;20048;-80
2023/10/17 06:45:01;;;;;;;11.73;6.55;;;8.00;99.90;;;;;;5056630;28;20049;-80
2023/10/17 06:47:31;;;;;;;10.82;6.45;;;8.00;99.90;;;;;;5037506;28;20080;-80
2023/10/17 06:53:02;;;;;;;9.52;5.22;;;8.10;99.90;;;;;;5061700;28;20495;-80
2023/10/17 06:55:38;;;;;;;8.75;5.45;;;8.10;99.90;;;;;;5050505;28;20062;-79
2023/10/17 06:58:11;;;;;;;9.90;5.43;;;8.10;99.90;;;;;;5053876;28;20474;-79
2023/10/17 07:00:53;;;;;;;11.15;5.70;;;8.30;99.90;;;;;;5067561;28;20045;-80
2023/10/17 07:03:25;;;;;;;11.02;5.85;;;8.20;99.90;;;;;;5038692;28;20045;-80
2023/10/17 07:05:55;;;;;;;11.32;5.70;;;8.20;99.90;;;;;;5051018;28;20037;-80
2023/10/17 07:08:21;;;;;;;8.85;6.85;;;8.20;99.90;;;;;;5039267;28;20163;-80
2023/10/17 07:11:26;;;;;;;10.35;5.70;;;8.30;99.90;;;;;;5055621;28;20057;-80
2023/10/17 07:24:43;;;;;;;14.27;5.95;;;8.50;99.90;;;;;;5051586;28;20048;-80
2023/10/17 07:27:19;;;;;;;12.43;5.85;;;8.60;99.90;;;;;;5060513;28;20170;-80
2023/10/17 07:29:58;;;;;;;9.65;5.85;;;8.70;99.90;;;;;;5041833;28;20080;-80
2023/10/17 07:32:44;;;;;;;9.68;5.43;;;8.60;99.90;;;;;;5034809;28;20503;-80
2023/10/17 07:35:16;;;;;;;9.80;5.95;;;8.60;99.90;;;;;;5044542;28;20041;-80
2023/10/17 07:37:54;;;;;;;9.15;5.55;;;8.60;99.90;;;;;;5038718;28;20063;-80
2023/10/17 07:40:42;;;;;;;9.90;5.88;;;8.70;99.90;;;;;;5052877;28;20128;-80
2023/10/17 07:43:09;;;;;;;11.65;5.70;;;8.80;99.90;;;;;;5058829;28;20514;-80
2023/10/17 07:45:38;;;;;;;9.50;5.78;;;8.90;99.90;;;;;;5044341;28;20068;-80
2023/10/17 07:48:19;;;;;;;9.45;5.28;;;9.40;99.90;;;;;;5042143;28;20081;-79
2023/10/17 07:50:54;;;;;;;9.70;5.00;;;8.90;99.90;;;;;;5062159;28;20092;-85
2023/10/17 07:53:22;;;;;;;11.98;5.30;;;9.00;99.90;;;;;;5044302;28;20037;-85
2023/10/17 07:55:56;;;;;;;9.85;5.03;;;9.10;99.90;;;;;;5038269;28;20041;-85
2023/10/17 08:01:08;;;;;;;11.60;5.10;;;9.20;99.90;;;;;;5049545;28;20048;-85
2023/10/17 08:03:40;;;;;;;7.93;4.65;;;9.20;99.90;;;;;;5050863;28;20037;-85
2023/10/17 08:06:12;;;;;;;13.07;6.38;;;9.30;99.90;;;;;;5068155;28;20106;-85
2023/10/17 08:08:44;;;;;;;24.77;13.50;;;9.40;99.90;;;;;;5049990;28;20088;-85
2023/10/17 08:11:26;;;;;;;35.10;16.60;;;9.40;99.90;;;;;;5050252;28;20045;-86
2023/10/17 08:13:56;;;;;;;15.60;6.28;;;9.60;99.90;;;;;;5068691;28;20053;-86
2023/10/17 08:16:28;;;;;;;8.50;4.10;;;9.60;99.90;;;;;;5040935;28;20049;-86
2023/10/17 08:20:00;;;;;;;8.50;4.13;;;9.60;99.90;;;;;;5038889;28;20129;-86
2023/10/17 08:21:49;;;;;;;8.90;3.53;;;9.60;99.90;;;;;;5050298;28;20041;-86
2023/10/17 08:24:26;;;;;;;11.48;3.38;;;9.70;99.90;;;;;;5030674;28;20037;-85
2023/10/17 08:30:05;;;;;;;8.77;3.10;;;10.10;99.90;;;;;;5066491;28;20041;-86
2023/10/17 08:35:37;;;;;;;8.47;3.17;;;10.00;99.90;;;;;;5050585;28;20037;-86
2023/10/17 08:38:09;;;;;;;4.40;2.28;;;10.10;99.90;;;;;;5069568;28;20382;-85
2023/10/17 08:43:31;;;;;;;5.90;1.98;;;10.50;99.90;;;;;;5069002;28;20073;-86
2023/10/17 08:45:58;;;;;;;6.65;2.20;;;10.30;99.90;;;;;;5068839;28;20086;-86
2023/10/17 08:48:26;;;;;;;6.28;2.10;;;10.30;99.90;;;;;;5049955;28;20391;-86
2023/10/17 08:50:55;;;;;;;4.25;2.00;;;10.40;99.90;;;;;;5037955;28;20041;-85
2023/10/17 08:53:23;;;;;;;6.43;2.17;;;10.50;99.90;;;;;;5037308;28;20064;-86
2023/10/17 08:55:52;;;;;;;6.38;2.00;;;10.70;99.90;;;;;;5036486;28;20069;-86
2023/10/17 08:58:24;;;;;;;6.85;2.25;;;10.60;99.90;;;;;;5054454;28;20057;-85
2023/10/17 09:00:58;;;;;;;5.93;2.30;;;10.90;99.90;;;;;;5054150;28;20049;-86
2023/10/17 09:03:31;;;;;;;6.10;1.80;;;10.90;99.90;;;;;;5056645;28;20640;-85
2023/10/17 09:06:07;;;;;;;4.75;2.10;;;10.80;99.90;;;;;;5053449;28;20037;-86
2023/10/17 09:11:14;;;;;;;6.30;1.98;;;11.20;99.90;;;;;;5069981;28;20049;-85
2023/10/17 09:16:15;;;;;;;8.68;2.20;;;11.00;99.90;;;;;;5064501;28;20368;-85
2023/10/17 09:18:50;;;;;;;6.93;1.98;;;11.00;99.90;;;;;;5050771;28;20063;-86
2023/10/17 09:21:20;;;;;;;5.53;2.30;;;11.00;99.90;;;;;;5037656;28;20049;-86
2023/10/17 09:23:47;;;;;;;7.43;2.20;;;11.00;99.90;;;;;;5044745;28;20483;-85
2023/10/17 09:26:19;;;;;;;4.45;1.92;;;11.10;99.90;;;;;;5057202;28;20095;-86
2023/10/17 09:28:49;;;;;;;5.30;2.00;;;11.20;99.90;;;;;;5073353;28;20087;-86
2023/10/17 09:31:17;;;;;;;7.93;2.40;;;11.20;99.90;;;;;;5057926;28;20048;-86
2023/10/17 09:33:44;;;;;;;6.18;2.25;;;11.20;99.90;;;;;;5057832;28;20072;-86
2023/10/17 09:36:17;;;;;;;6.55;2.63;;;11.30;99.90;;;;;;5073825;28;20033;-86
2023/10/17 09:38:45;;;;;;;5.55;3.05;;;11.30;99.90;;;;;;5050894;28;20484;-86
2023/10/17 09:41:19;;;;;;;10.77;2.78;;;11.30;99.90;;;;;;5035875;28;20046;-86
2023/10/17 09:43:47;;;;;;;5.25;2.10;;;11.40;99.90;;;;;;5038186;28;20033;-86
2023/10/17 09:46:14;;;;;;;4.30;2.05;;;11.50;99.90;;;;;;5067068;28;20124;-86
2023/10/17 09:48:43;;;;;;;5.95;2.45;;;12.10;99.90;;;;;;5062110;28;20077;-86
2023/10/17 09:51:19;;;;;;;5.72;2.47;;;11.50;99.90;;;;;;5054148;28;20037;-86
2023/10/17 09:53:54;;;;;;;5.63;2.42;;;11.60;99.90;;;;;;5037503;28;20049;-86
2023/10/17 09:56:25;;;;;;;5.40;2.40;;;11.60;99.90;;;;;;5057077;28;20041;-85
2023/10/17 09:58:55;;;;;;;6.90;2.40;;;11.60;99.90;;;;;;5073096;28;20146;-85
2023/10/17 10:01:31;;;;;;;4.50;2.40;;;11.70;99.90;;;;;;5040645;28;20045;-86
2023/10/17 10:04:01;;;;;;;3.85;1.75;;;11.70;99.90;;;;;;5071999;28;20042;-86
2023/10/17 10:06:33;;;;;;;6.90;1.35;;;12.20;99.90;;;;;;5051494;28;20038;-86
2023/10/17 10:09:14;;;;;;;6.28;1.50;;;12.10;99.90;;;;;;5055097;28;20491;-86
2023/10/17 10:11:53;;;;;;;2.95;1.00;;;11.70;99.90;;;;;;5049124;28;20045;-86
2023/10/17 10:14:33;;;;;;;4.45;1.20;;;11.70;99.90;;;;;;5053031;28;20048;-86
2023/10/17 10:17:03;;;;;;;3.75;1.10;;;11.60;99.90;;;;;;5049875;28;20125;-86
2023/10/17 10:19:42;;;;;;;3.15;1.10;;;11.70;99.90;;;;;;5038807;28;20048;-86
2023/10/17 10:22:13;;;;;;;3.00;1.02;;;11.70;99.90;;;;;;5037853;28;20452;-85
2023/10/17 10:24:42;;;;;;;6.25;1.30;;;11.70;99.90;;;;;;5046803;28;20438;-85
2023/10/17 10:27:15;;;;;;;4.10;1.10;;;11.70;99.90;;;;;;5040463;28;20037;-86
2023/10/17 10:29:43;;;;;;;3.00;1.10;;;11.70;99.90;;;;;;5045144;28;20045;-86
2023/10/17 10:32:25;;;;;;;6.50;1.40;;;11.70;99.90;;;;;;5051488;28;20041;-85
2023/10/17 10:34:52;;;;;;;3.80;1.17;;;11.80;99.90;;;;;;5060019;28;20038;-85
2023/10/17 10:37:20;;;;;;;3.38;1.33;;;11.80;99.90;;;;;;5041337;28;20045;-85
2023/10/17 10:40:12;;;;;;;3.67;1.52;;;11.90;99.90;;;;;;5046780;28;20045;-85
2023/10/17 10:42:50;;;;;;;5.30;1.33;;;11.90;99.90;;;;;;5064030;28;20029;-85
2023/10/17 10:45:40;;;;;;;3.40;1.35;;;11.90;99.90;;;;;;5033548;28;20037;-85
2023/10/17 10:48:14;;;;;;;2.95;1.15;;;12.00;99.90;;;;;;5052844;28;20045;-85
2023/10/17 10:50:43;;;;;;;2.40;1.00;;;12.30;99.90;;;;;;5049253;28;20507;-85
2023/10/17 10:53:22;;;;;;;4.55;1.27;;;12.00;99.90;;;;;;5051916;28;20128;-85
2023/10/17 10:55:57;;;;;;;5.05;1.33;;;12.00;99.90;;;;;;5052063;28;20087;-84
2023/10/17 10:58:24;;;;;;;2.55;0.90;;;11.90;99.90;;;;;;5041907;28;20042;-86
2023/10/17 11:00:54;;;;;;;3.03;1.27;;;11.90;99.90;;;;;;5054251;28;20033;-86
2023/10/17 11:03:24;;;;;;;4.28;1.35;;;11.90;99.90;;;;;;5049476;28;20044;-86
2023/10/17 11:05:58;;;;;;;4.22;1.17;;;11.90;99.90;;;;;;5050493;28;20395;-85
2023/10/17 11:08:32;;;;;;;3.45;1.30;;;11.90;99.90;;;;;;5044570;28;20496;-86
2023/10/17 11:11:00;;;;;;;3.83;1.27;;;11.90;99.90;;;;;;5062182;28;20531;-86
2023/10/17 11:13:38;;;;;;;3.80;1.20;;;12.00;99.90;;;;;;5051590;28;20044;-86
2023/10/17 11:16:05;;;;;;;3.10;1.27;;;11.90;99.90;;;;;;5054682;28;20098;-86
2023/10/17 11:18:44;;;;;;;4.78;1.20;;;12.40;99.90;;;;;;5039807;28;20034;-86
2023/10/17 11:21:12;;;;;;;2.15;1.10;;;11.90;99.90;;;;;;5039168;28;20045;-86
2023/10/17 11:23:57;;;;;;;3.35;1.08;;;12.00;99.90;;;;;;5035735;28;20045;-85
2023/10/17 11:26:26;;;;;;;2.65;1.20;;;12.00;99.90;;;;;;5061217;28;20543;-86
2023/10/17 11:28:53;;;;;;;3.38;1.20;;;12.00;99.90;;;;;;5052706;28;20041;-86
2023/10/17 11:31:24;;;;;;;3.08;1.30;;;11.90;99.90;;;;;;5050728;28;20041;-84
2023/10/17 11:33:56;;;;;;;3.03;1.13;;;12.00;99.90;;;;;;5041758;28;20092;-86
2023/10/17 11:36:23;;;;;;;3.55;1.58;;;11.90;99.90;;;;;;5042790;28;20515;-85
2023/10/17 11:38:57;;;;;;;2.85;1.38;;;11.90;99.90;;;;;;5048596;28;20053;-85
2023/10/17 11:41:39;;;;;;;3.93;1.47;;;11.90;99.90;;;;;;5044478;28;20044;-87
2023/10/17 11:44:07;;;;;;;3.60;1.55;;;11.90;99.90;;;;;;5056080;28;20322;-84
2023/10/17 11:46:35;;;;;;;4.53;1.23;;;11.90;99.90;;;;;;5046971;28;20249;-84
2023/10/17 11:49:29;;;;;;;3.35;1.25;;;11.90;99.90;;;;;;5052143;28;20073;-84
2023/10/17 11:52:09;;;;;;;5.50;1.60;;;12.00;99.90;;;;;;5044757;28;20044;-82
2023/10/17 11:55:00;;;;;;;3.83;1.30;;;11.90;99.90;;;;;;5044655;28;20128;-84
2023/10/17 11:57:28;;;;;;;4.28;1.25;;;12.00;99.90;;;;;;5049677;28;20132;-85
2023/10/17 12:00:06;;;;;;;3.35;1.23;;;11.90;99.90;;;;;;5050612;28;20059;-84
2023/10/17 12:02:33;;;;;;;5.18;1.27;;;11.90;99.90;;;;;;5050023;28;20041;-84
2023/10/17 12:05:01;;;;;;;3.50;1.17;;;11.90;99.90;;;;;;5052272;28;20128;-85
2023/10/17 12:07:29;;;;;;;4.47;1.10;;;12.00;99.90;;;;;;5049838;28;20034;-85
2023/10/17 12:10:04;;;;;;;3.08;1.10;;;12.00;99.90;;;;;;5068270;28;20837;-85
2023/10/17 12:12:33;;;;;;;2.75;1.15;;;12.00;99.90;;;;;;5055408;28;20046;-84
2023/10/17 12:15:00;;;;;;;3.83;1.23;;;11.90;99.90;;;;;;5050669;28;20060;-85
2023/10/17 12:17:26;;;;;;;4.05;0.90;;;12.00;99.90;;;;;;5046756;28;20042;-85
2023/10/17 12:19:53;;;;;;;2.22;0.98;;;12.00;99.90;;;;;;5041171;28;20482;-84
2023/10/17 12:22:20;;;;;;;3.10;1.00;;;12.00;99.90;;;;;;5049902;28;20415;-85
2023/10/17 12:24:46;;;;;;;2.53;1.02;;;11.90;99.90;;;;;;5066821;28;20038;-85
2023/10/17 12:27:13;;;;;;;3.13;1.10;;;11.90;99.90;;;;;;5049809;28;20043;-83
2023/10/17 12:29:41;;;;;;;2.67;1.05;;;11.90;99.90;;;;;;5049862;28;20467;-84
2023/10/17 12:32:10;;;;;;;3.28;1.08;;;12.00;99.90;;;;;;5069046;28;20179;-83
2023/10/17 12:34:40;;;;;;;2.20;1.02;;;11.90;99.90;;;;;;5061736;28;20080;-84
2023/10/17 12:37:11;;;;;;;2.13;0.93;;;11.90;99.90;;;;;;5053197;28;20536;-84
2023/10/17 12:39:40;;;;;;;3.13;0.90;;;12.00;99.90;;;;;;5048912;28;20384;-85
2023/10/17 12:42:06;;;;;;;4.18;0.90;;;11.90;99.90;;;;;;5052611;28;20170;-85
2023/10/17 12:44:33;;;;;;;3.40;1.00;;;12.00;99.90;;;;;;5065807;28;20124;-84
2023/10/17 12:47:00;;;;;;;1.88;0.90;;;12.00;99.90;;;;;;5068508;28;20053;-84
2023/10/17 12:49:27;;;;;;;2.22;0.82;;;11.90;99.90;;;;;;5036473;28;20056;-78
2023/10/17 12:51:54;;;;;;;2.90;0.90;;;12.00;99.90;;;;;;5051174;28;20038;-84
2023/10/17 12:54:21;;;;;;;2.05;0.90;;;12.00;99.90;;;;;;5050689;28;20114;-85
2023/10/17 12:56:48;;;;;;;1.52;0.80;;;12.00;99.90;;;;;;5050135;28;20041;-85
2023/10/17 12:59:14;;;;;;;2.55;0.98;;;12.00;99.90;;;;;;5048820;28;20061;-84
2023/10/17 13:01:41;;;;;;;3.35;1.00;;;11.90;99.90;;;;;;5038260;28;20502;-84
2023/10/17 13:04:09;;;;;;;3.17;0.90;;;11.90;99.90;;;;;;5052792;28;20040;-84
2023/10/17 13:06:37;;;;;;;2.40;0.95;;;12.00;99.90;;;;;;5065591;28;20041;-84
2023/10/17 13:09:04;;;;;;;3.40;0.95;;;12.00;99.90;;;;;;5068699;28;20124;-86
2023/10/17 13:11:32;;;;;;;2.28;0.90;;;12.00;99.90;;;;;;5065695;28;20132;-84
2023/10/17 13:13:59;;;;;;;5.30;0.90;;;11.90;99.90;;;;;;5051090;28;20037;-85
2023/10/17 13:16:29;;;;;;;3.10;1.30;;;11.90;99.90;;;;;;5048986;28;20041;-83
2023/10/17 13:18:57;;;;;;;3.45;0.70;;;11.90;99.90;;;;;;5050517;28;20048;-85
2023/10/17 13:21:24;;;;;;;2.78;0.93;;;11.90;99.90;;;;;;5049000;28;20380;-85
2023/10/17 13:23:51;;;;;;;4.55;0.93;;;11.90;99.90;;;;;;5049741;28;20423;-85
2023/10/17 13:26:19;;;;;;;2.33;0.90;;;11.90;99.90;;;;;;5049612;28;20034;-84
2023/10/17 13:28:46;;;;;;;2.22;0.95;;;12.20;99.90;;;;;;5049318;28;20053;-83
2023/10/17 13:31:16;;;;;;;4.45;1.25;;;11.90;99.90;;;;;;5049124;28;20045;-86
2023/10/17 13:33:44;;;;;;;3.47;0.98;;;11.90;99.90;;;;;;5074615;28;20042;-85
2023/10/17 13:36:15;;;;;;;1.83;0.88;;;12.40;99.90;;;;;;5045809;28;20037;-85
2023/10/17 13:38:43;;;;;;;3.70;1.05;;;11.80;99.90;;;;;;5060198;28;20037;-86
2023/10/17 13:41:10;;;;;;;4.60;0.90;;;12.00;99.90;;;;;;5044283;28;20038;-84
2023/10/17 13:43:40;;;;;;;3.65;0.80;;;11.80;99.90;;;;;;5046283;28;20037;-82
2023/10/17 13:46:16;;;;;;;4.60;1.00;;;11.80;99.90;;;;;;5052259;28;20175;-82
2023/10/17 13:48:49;;;;;;;6.15;1.08;;;11.80;99.90;;;;;;5044447;28;20784;-82
2023/10/17 13:51:18;;;;;;;4.03;1.58;;;11.80;99.90;;;;;;5049376;28;20051;-81
2023/10/17 13:53:45;;;;;;;3.15;0.95;;;11.80;99.90;;;;;;5043528;28;20171;-82
2023/10/17 13:56:13;;;;;;;3.33;0.68;;;12.00;99.90;;;;;;5050988;28;20045;-82
2023/10/17 13:58:41;;;;;;;3.15;0.82;;;11.80;99.90;;;;;;5059983;28;20511;-85
2023/10/17 14:01:27;;;;;;;3.33;0.85;;;11.70;99.90;;;;;;5061440;28;20072;-85
2023/10/17 14:03:55;;;;;;;2.72;1.00;;;11.80;99.90;;;;;;5042705;28;20103;-85
2023/10/17 14:06:23;;;;;;;3.05;0.93;;;11.60;99.90;;;;;;5037710;28;20120;-85
2023/10/17 14:08:50;;;;;;;3.05;1.00;;;11.60;99.90;;;;;;5043105;28;20065;-84
2023/10/17 14:11:19;;;;;;;6.10;0.93;;;11.60;99.90;;;;;;5056996;28;20047;-84
2023/10/17 14:13:49;;;;;;;3.60;1.08;;;11.60;99.90;;;;;;5043951;28;20137;-85
2023/10/17 14:16:16;;;;;;;1.90;0.73;;;11.60;99.90;;;;;;5039570;28;20041;-84
2023/10/17 14:18:44;;;;;;;4.35;0.90;;;11.60;99.90;;;;;;5038317;28;20038;-84
2023/10/17 14:21:23;;;;;;;1.65;0.80;;;11.50;99.90;;;;;;5043052;28;20096;-85
2023/10/17 14:24:00;;;;;;;4.07;1.20;;;11.50;99.90;;;;;;5071595;28;20627;-83
2023/10/17 14:26:30;;;;;;;2.55;0.70;;;11.50;99.90;;;;;;5039546;28;20046;-84
2023/10/17 14:29:00;;;;;;;3.13;0.90;;;11.50;99.90;;;;;;5051571;28;20049;-83
2023/10/17 14:31:29;;;;;;;2.08;1.00;;;11.50;99.90;;;;;;5055624;28;20041;-84
2023/10/17 14:33:58;;;;;;;3.22;0.93;;;12.00;99.90;;;;;;5052541;28;20128;-84
2023/10/17 14:36:27;;;;;;;3.38;0.80;;;11.50;99.90;;;;;;5047895;28;20049;-84
2023/10/17 14:38:54;;;;;;;1.52;0.70;;;11.50;99.90;;;;;;5051085;28;20041;-84
2023/10/17 14:41:23;;;;;;;2.83;0.88;;;11.60;99.90;;;;;;5066801;28;20564;-83
2023/10/17 14:43:50;;;;;;;5.70;0.90;;;11.70;99.90;;;;;;5060679;28;20034;-83
2023/10/17 14:46:17;;;;;;;3.08;1.00;;;11.50;99.90;;;;;;5036852;28;20538;-83
2023/10/17 14:48:44;;;;;;;4.65;0.88;;;11.60;99.90;;;;;;5067515;28;20033;-83
2023/10/17 14:51:12;;;;;;;2.83;0.73;;;11.50;99.90;;;;;;5055474;28;20045;-83
2023/10/17 14:53:43;;;;;;;2.15;0.80;;;11.40;99.90;;;;;;5051418;28;20037;-83
2023/10/17 14:56:12;;;;;;;3.15;1.00;;;11.80;99.90;;;;;;5068030;28;20037;-83
2023/10/17 14:58:49;;;;;;;3.45;0.90;;;11.50;99.90;;;;;;5048161;28;20061;-83
2023/10/17 15:01:18;;;;;;;2.78;0.90;;;11.30;99.90;;;;;;5066801;28;20041;-83
2023/10/17 15:03:50;;;;;;;3.28;1.00;;;11.60;99.90;;;;;;5064378;28;20037;-83
2023/10/17 15:06:17;;;;;;;4.07;0.90;;;11.30;99.90;;;;;;5051290;28;20072;-83
2023/10/17 15:08:44;;;;;;;2.95;0.93;;;11.70;99.90;;;;;;5062555;28;20052;-82
2023/10/17 15:11:11;;;;;;;1.55;0.85;;;11.20;99.90;;;;;;5036731;28;20049;-82
2023/10/17 15:13:38;;;;;;;4.65;1.25;;;11.20;99.90;;;;;;5047473;28;20033;-83
2023/10/17 15:16:16;;;;;;;3.65;1.02;;;11.10;99.90;;;;;;5047919;28;20044;-83
2023/10/17 15:18:43;;;;;;;2.65;0.90;;;11.10;99.90;;;;;;5048263;28;20076;-83
2023/10/17 15:21:11;;;;;;;4.13;1.20;;;11.30;99.90;;;;;;5052744;28;20033;-83
2023/10/17 15:23:42;;;;;;;4.85;1.20;;;11.20;99.90;;;;;;5041005;28;20069;-83
2023/10/17 15:26:12;;;;;;;2.15;0.90;;;11.30;99.90;;;;;;5053692;28;20033;-83
2023/10/17 15:28:46;;;;;;;2.88;1.10;;;10.90;99.90;;;;;;5066914;28;20080;-83
2023/10/17 15:31:16;;;;;;;4.28;0.98;;;10.90;99.90;;;;;;5070514;28;20067;-83
2023/10/17 15:33:44;;;;;;;1.58;0.90;;;10.90;99.90;;;;;;5052749;28;20087;-83
2023/10/17 15:36:11;;;;;;;3.88;1.23;;;10.80;99.90;;;;;;5053151;28;20036;-83
2023/10/17 15:38:40;;;;;;;3.17;1.10;;;10.90;99.90;;;;;;5040313;28;20090;-83